.
WxDataArchive / Data Records for 2007-07-16
2007-07-15 July 2007 2007-07-17

Data Records for Monday, 16 July 2007

Time	Temp	Chill	HIndex	Humid	Dewpt	 Wind 	HiWind	WindDir	Rain 	Barom 
-----	----	-----	------	-----	-----	------	------	-------	-----	----- 
00:00	60.5	60.5	60.5	74	52.2	0	0	---	0.00	29.900 
00:05	60.2	60.2	60.2	75	52.2	0	0	---	0.00	29.896 
00:10	60.1	60.1	60.1	76	52.5	0	0	---	0.00	29.895 
00:15	59.8	59.8	59.8	76	52.2	0	0	---	0.00	29.894 
00:20	59.6	59.6	59.6	77	52.4	0	0	---	0.00	29.894 
00:25	59.5	59.5	59.5	77	52.3	0	0	---	0.00	29.898 
00:30	59.3	59.3	59.3	77	52.1	0	0	---	0.00	29.900 
00:35	59.0	59.0	59.0	77	51.8	0	0	---	0.00	29.899 
00:40	58.9	58.9	58.9	79	52.4	0	0	---	0.00	29.901 
00:45	58.7	58.7	58.7	79	52.2	0	0	---	0.00	29.894 
00:50	58.6	58.6	58.6	79	52.1	0	0	---	0.00	29.897 
00:55	58.4	58.4	58.4	80	52.3	0	0	---	0.00	29.896 
01:00	58.3	58.3	58.3	81	52.5	0	0	---	0.00	29.895 
01:05	58.1	58.1	58.1	81	52.3	0	0	---	0.00	29.895 
01:10	58.0	58.0	58.0	81	52.2	0	0	---	0.00	29.896 
01:15	57.8	57.8	57.8	81	52.0	0	0	---	0.00	29.895 
01:20	57.6	57.6	57.6	82	52.1	0	0	---	0.00	29.894 
01:25	57.6	57.6	57.6	83	52.5	0	0	---	0.00	29.896 
01:30	57.5	57.5	57.5	84	52.7	0	0	---	0.00	29.899 
01:35	57.5	57.5	57.5	83	52.4	0	0	---	0.00	29.900 
01:40	57.3	57.3	57.3	84	52.5	0	0	---	0.00	29.901 
01:45	57.2	57.2	57.2	84	52.4	0	0	---	0.00	29.903 
01:50	57.0	57.0	57.0	84	52.2	0	0	---	0.00	29.902 
01:55	56.9	56.9	56.9	84	52.1	0	0	---	0.00	29.900 
02:00	56.9	56.9	56.9	84	52.1	0	0	---	0.00	29.898 
02:05	56.7	56.7	56.7	85	52.2	0	0	---	0.00	29.897 
02:10	56.6	56.6	56.6	86	52.5	0	0	---	0.00	29.896 
02:15	56.5	56.5	56.5	86	52.4	0	0	---	0.00	29.893 
02:20	56.5	56.5	56.5	86	52.4	0	0	---	0.00	29.895 
02:25	56.5	56.5	56.5	86	52.4	0	0	---	0.00	29.897 
02:30	56.3	56.3	56.3	86	52.2	0	0	---	0.00	29.898 
02:35	56.3	56.3	56.3	87	52.5	0	0	---	0.00	29.900 
02:40	56.3	56.3	56.3	87	52.5	0	0	---	0.00	29.900 
02:45	56.2	56.2	56.2	87	52.4	0	0	---	0.00	29.901 
02:50	56.2	56.2	56.2	88	52.7	0	0	---	0.00	29.901 
02:55	56.2	56.2	56.2	88	52.7	0	0	---	0.00	29.901 
03:00	56.0	56.0	56.0	88	52.5	0	0	---	0.00	29.901 
03:05	56.0	56.0	56.0	88	52.5	0	0	---	0.00	29.902 
03:10	56.2	56.2	56.2	89	53.0	0	0	---	0.00	29.902 
03:15	56.5	56.5	56.5	89	53.3	0	0	---	0.00	29.901 
03:20	56.6	56.6	56.6	89	53.4	0	0	---	0.00	29.900 
03:25	56.7	56.7	56.7	89	53.5	0	0	---	0.00	29.902 
03:30	57.0	57.0	57.0	89	53.8	0	0	---	0.00	29.903 
03:35	57.2	57.2	57.2	89	54.0	0	0	---	0.00	29.905 
03:40	57.3	57.3	57.3	89	54.1	0	0	---	0.00	29.907 
03:45	57.8	57.8	57.8	89	54.6	0	0	---	0.00	29.912 
03:50	58.1	58.1	58.1	88	54.6	0	0	---	0.00	29.915 
03:55	58.3	58.3	58.3	87	54.4	0	0	---	0.00	29.916 
04:00	58.6	58.6	58.6	86	54.4	0	0	---	0.00	29.918 
04:05	58.9	58.9	58.9	85	54.4	0	0	---	0.00	29.922 
04:10	59.0	59.0	59.0	84	54.2	0	0	---	0.00	29.924 
04:15	59.2	59.2	59.2	84	54.4	0	0	---	0.00	29.922 
04:20	59.2	59.2	59.2	84	54.4	0	0	---	0.00	29.924 
04:25	59.3	59.3	59.3	84	54.5	0	0	---	0.00	29.928 
04:30	59.5	59.5	59.5	84	54.7	0	0	---	0.00	29.931 
04:35	59.5	59.5	59.5	84	54.7	0	0	---	0.00	29.931 
04:40	59.5	59.5	59.5	84	54.7	0	0	---	0.00	29.932 
04:45	59.5	59.5	59.5	83	54.3	0	0	---	0.00	29.935 
04:50	59.5	59.5	59.5	83	54.3	0	0	---	0.00	29.934 
04:55	59.3	59.3	59.3	84	54.5	0	0	---	0.00	29.931 
05:00	59.2	59.2	59.2	84	54.4	0	0	---	0.00	29.930 
05:05	59.0	59.0	59.0	84	54.2	0	0	---	0.00	29.930 
05:10	58.9	58.9	58.9	84	54.1	0	0	---	0.00	29.930 
05:15	58.7	58.7	58.7	85	54.2	0	0	---	0.00	29.932 
05:20	58.4	58.4	58.4	85	53.9	0	0	---	0.00	29.934 
05:25	58.3	58.3	58.3	86	54.1	0	0	---	0.00	29.935 
05:30	58.1	58.1	58.1	86	53.9	0	0	---	0.00	29.934 
05:35	58.0	58.0	58.0	87	54.1	0	0	---	0.00	29.934 
05:40	57.8	57.8	57.8	87	54.0	0	0	---	0.00	29.933 
05:45	57.6	57.6	57.6	87	53.8	0	0	---	0.00	29.933 
05:50	57.6	57.6	57.6	87	53.8	0	0	---	0.00	29.934 
05:55	57.6	57.6	57.6	88	54.1	0	0	---	0.00	29.933 
06:00	57.6	57.6	57.6	88	54.1	0	0	---	0.00	29.935 
06:05	57.8	57.8	57.8	88	54.3	0	0	---	0.00	29.936 
06:10	58.1	58.1	58.1	88	54.6	0	0	---	0.00	29.939 
06:15	58.3	58.3	58.3	88	54.8	0	0	---	0.00	29.943 
06:20	58.7	58.7	58.7	87	54.8	0	0	---	0.00	29.947 
06:25	59.2	59.2	59.2	87	55.3	0	0	---	0.00	29.948 
06:30	59.6	59.6	59.6	86	55.4	0	0	---	0.00	29.946 
06:35	60.2	60.2	60.2	85	55.7	0	0	---	0.00	29.945 
06:40	60.7	60.7	60.7	85	56.2	0	0	---	0.00	29.944 
06:45	61.3	61.3	61.3	83	56.1	0	0	---	0.00	29.945 
06:50	62.1	62.1	62.1	81	56.2	0	1	338	0.00	29.944 
06:55	62.9	62.9	62.9	80	56.6	0	0	---	0.00	29.944 
07:00	63.4	63.4	63.4	77	56.1	0	0	---	0.00	29.942 
07:05	64.2	64.2	64.2	73	55.4	0	0	---	0.00	29.945 
07:10	65.5	65.5	65.5	66	53.8	0	1	338	0.00	29.943 
07:15	66.6	66.6	66.6	65	54.5	0	0	---	0.00	29.944 
07:20	67.1	67.1	67.1	63	54.1	0	0	---	0.00	29.944 
07:25	67.9	67.9	67.9	63	54.8	0	1	338	0.00	29.945 
07:30	68.6	68.6	68.6	62	55.0	0	1	338	0.00	29.944 
07:35	68.9	68.9	68.9	60	54.4	0	1	338	0.00	29.944 
07:40	69.1	69.1	69.1	58	53.7	0	2	315	0.00	29.945 
07:45	69.8	69.8	69.8	58	54.3	0	2	315	0.00	29.945 
07:50	70.8	70.8	70.8	54	53.3	0	2	315	0.00	29.944 
07:55	71.1	71.1	71.1	56	54.6	0	1	315	0.00	29.943 
08:00	72.1	72.1	72.1	53	54.0	0	2	315	0.00	29.941 
08:05	73.2	73.2	73.2	51	54.0	0	2	180	0.00	29.945 
08:10	73.7	73.7	73.7	51	54.4	1	3	248	0.00	29.944 
08:15	73.7	73.7	73.7	50	53.9	1	3	112	0.00	29.948 
08:20	73.5	73.5	73.5	50	53.7	1	3	135	0.00	29.953 
08:25	73.7	73.7	73.7	50	53.9	1	3	158	0.00	29.958 
08:30	73.5	73.5	73.5	50	53.7	1	3	112	0.00	29.958 
08:35	73.3	73.3	73.3	53	55.1	0	1	112	0.00	29.961 
08:40	73.2	73.2	73.2	51	54.0	0	1	112	0.00	29.964 
08:45	73.2	73.2	73.2	51	54.0	1	3	292	0.00	29.962 
08:50	73.3	73.3	73.3	51	54.1	0	1	292	0.00	29.962 
08:55	73.3	73.3	73.3	51	54.1	0	2	292	0.00	29.964 
09:00	73.7	73.7	73.7	50	53.9	1	3	292	0.00	29.959 
09:05	74.2	74.2	74.2	49	53.8	1	3	90	0.00	29.962 
09:10	74.6	74.6	74.6	50	54.7	1	3	112	0.00	29.963 
09:15	74.7	74.7	74.7	49	54.3	1	3	90	0.00	29.963 
09:20	75.3	75.3	77.7	47	53.7	1	4	90	0.00	29.963 
09:25	75.6	75.6	77.9	48	54.5	1	4	90	0.00	29.961 
09:30	75.8	75.8	77.9	45	52.9	1	2	90	0.00	29.962 
09:35	76.0	76.0	78.0	46	53.7	1	2	90	0.00	29.962 
09:40	76.0	76.0	78.0	46	53.7	1	2	90	0.00	29.964 
09:45	76.3	76.3	78.1	45	53.4	0	1	90	0.00	29.963 
09:50	76.7	76.7	78.3	46	54.3	1	3	90	0.00	29.964 
09:55	77.0	77.0	78.4	44	53.4	1	2	338	0.00	29.964 
10:00	76.1	76.1	78.0	46	53.8	1	2	338	0.00	29.963 
10:05	74.7	74.7	74.7	49	54.3	1	2	292	0.00	29.965 
10:10	73.3	73.3	73.3	56	56.6	0	2	292	0.00	29.967 
10:15	72.5	72.5	72.5	56	55.9	1	2	292	0.00	29.968 
10:20	70.6	70.6	70.6	62	56.9	0	3	292	0.00	29.971 
10:25	69.4	69.4	69.4	66	57.5	1	3	270	0.00	29.970 
10:30	68.6	68.6	68.6	71	58.8	0	2	270	0.00	29.973 
10:35	68.3	68.3	68.3	66	56.5	0	2	270	0.00	29.975 
10:40	68.9	68.9	68.9	65	56.6	0	2	270	0.00	29.975 
10:45	69.9	69.9	69.9	59	54.9	1	2	270	0.00	29.976 
10:50	70.6	70.6	70.6	65	58.2	1	2	270	0.00	29.975 
10:55	70.6	70.6	70.6	69	59.9	1	3	270	0.00	29.971 
11:00	68.6	68.6	68.6	75	60.3	1	4	270	0.00	29.970 
11:05	66.9	66.9	66.9	77	59.4	1	4	270	0.00	29.972 
11:10	66.6	66.6	66.6	77	59.2	1	4	270	0.00	29.972 
11:15	67.1	67.1	67.1	74	58.5	1	3	315	0.00	29.971 
11:20	67.4	67.4	67.4	79	60.7	1	3	0	0.01	29.971 
11:25	67.3	67.3	67.3	74	58.7	0	3	68	0.00	29.969 
11:30	67.4	67.4	67.4	76	59.6	1	3	22	0.00	29.966 
11:35	68.3	68.3	68.3	72	58.9	0	3	292	0.00	29.968 
11:40	70.1	70.1	70.1	67	58.6	2	4	248	0.00	29.968 
11:45	71.3	71.3	71.3	59	56.2	1	3	292	0.00	29.968 
11:50	72.0	72.0	72.0	63	58.7	0	3	292	0.00	29.967 
11:55	72.3	72.3	72.3	64	59.4	0	2	292	0.00	29.967 
12:00	73.9	73.9	73.9	50	54.1	2	4	270	0.00	29.963 
12:05	74.6	74.6	74.6	57	58.3	1	4	315	0.00	29.964 
12:10	75.8	75.8	77.9	46	53.5	1	4	270	0.00	29.966 
12:15	76.7	76.7	78.3	45	53.7	2	4	270	0.00	29.965 
12:20	77.4	77.4	78.4	40	51.2	2	4	248	0.00	29.964 
12:25	79.0	79.0	79.2	39	51.9	2	4	315	0.00	29.957 
12:30	80.7	80.7	80.3	39	53.4	1	5	270	0.00	29.954 
12:35	81.2	81.2	80.3	35	50.9	1	4	248	0.00	29.952 
12:40	81.6	81.6	80.5	33	49.7	1	3	248	0.00	29.949 
12:45	82.2	82.2	81.0	34	51.0	2	4	248	0.00	29.947 
12:50	83.0	83.0	81.4	32	50.1	3	5	270	0.00	29.946 
12:55	83.2	83.2	81.5	31	49.4	2	4	292	0.00	29.948 
13:00	83.2	83.2	81.6	32	50.2	2	4	292	0.00	29.947 
13:05	83.4	83.4	81.8	33	51.2	1	4	270	0.00	29.945 
13:10	84.0	84.0	82.3	33	51.8	2	4	270	0.00	29.945 
13:15	84.5	84.5	82.3	29	48.7	2	6	270	0.00	29.946 
13:20	84.3	84.3	82.2	29	48.5	1	3	315	0.00	29.945 
13:25	84.5	84.5	82.3	29	48.7	2	6	248	0.00	29.945 
13:30	84.7	84.7	82.6	30	49.8	1	5	248	0.00	29.943 
13:35	84.7	84.7	82.5	29	48.9	2	7	270	0.00	29.945 
13:40	84.7	84.7	82.6	30	49.8	2	4	270	0.00	29.944 
13:45	84.9	84.9	82.7	29	49.1	2	5	270	0.00	29.943 
13:50	84.9	84.9	82.7	29	49.1	2	5	270	0.00	29.942 
13:55	84.3	84.3	82.2	29	48.5	1	3	292	0.00	29.942 
14:00	84.1	84.1	81.9	28	47.4	2	5	248	0.00	29.944 
14:05	84.7	84.7	82.6	30	49.8	2	4	270	0.00	29.945 
14:10	84.9	84.9	82.6	28	48.1	2	4	248	0.00	29.947 
14:15	84.3	84.3	82.2	29	48.5	1	3	248	0.00	29.945 
14:20	84.5	84.5	82.5	31	50.5	0	3	292	0.00	29.944 
14:25	84.7	84.7	82.4	28	48.0	2	4	292	0.00	29.941 
14:30	84.7	84.7	82.7	31	50.7	1	3	248	0.00	29.943 
14:35	84.9	84.9	82.6	28	48.1	2	6	248	0.00	29.942 
14:40	84.5	84.5	82.2	28	47.8	3	5	270	0.00	29.939 
14:45	84.5	84.5	82.2	28	47.8	2	6	248	0.00	29.936 
14:50	84.3	84.3	82.3	30	49.5	1	3	315	0.00	29.934 
14:55	84.1	84.1	82.0	29	48.4	1	4	292	0.00	29.932 
15:00	84.0	84.0	82.0	30	49.2	1	6	270	0.00	29.931 
15:05	84.5	84.5	82.3	29	48.7	2	6	270	0.00	29.929 
15:10	85.1	85.1	82.8	29	49.2	2	6	270	0.00	29.926 
15:15	85.3	85.3	82.9	28	48.5	2	4	248	0.00	29.926 
15:20	85.7	85.7	83.7	32	52.4	2	4	270	0.00	29.927 
15:25	85.1	85.1	82.8	29	49.2	2	6	270	0.00	29.928 
15:30	84.5	84.5	82.3	29	48.7	1	3	270	0.00	29.928 
15:35	84.1	84.1	81.9	28	47.4	1	4	315	0.00	29.927 
15:40	84.1	84.1	82.0	29	48.4	2	5	292	0.00	29.928 
15:45	84.0	84.0	81.9	29	48.3	1	3	292	0.00	29.928 
15:50	84.3	84.3	82.4	31	50.3	1	3	292	0.00	29.926 
15:55	84.5	84.5	82.9	34	53.0	1	4	225	0.00	29.919 
16:00	84.5	84.5	83.0	35	53.8	1	3	292	0.00	29.922 
16:05	84.1	84.1	82.1	30	49.3	2	4	315	0.00	29.923 
16:10	83.6	83.6	81.7	30	48.9	1	3	270	0.00	29.923 
16:15	83.6	83.6	81.8	31	49.7	2	3	315	0.00	29.925 
16:20	83.8	83.8	82.1	32	50.8	2	4	248	0.00	29.922 
16:25	83.8	83.8	81.8	30	49.0	1	4	248	0.00	29.924 
16:30	83.8	83.8	81.8	30	49.0	1	3	248	0.00	29.923 
16:35	84.1	84.1	82.1	30	49.3	1	3	270	0.00	29.921 
16:40	84.9	84.9	82.7	29	49.1	1	3	270	0.00	29.918 
16:45	85.3	85.3	82.9	28	48.5	1	4	248	0.00	29.918 
16:50	85.3	85.3	83.1	30	50.3	1	3	292	0.00	29.918 
16:55	85.1	85.1	82.7	28	48.3	1	3	270	0.00	29.921 
17:00	84.1	84.1	82.0	29	48.4	1	4	248	0.00	29.925 
17:05	83.6	83.6	81.8	31	49.7	1	3	248	0.00	29.926 
17:10	83.8	83.8	82.1	32	50.8	0	2	270	0.00	29.923 
17:15	84.1	84.1	82.1	30	49.3	2	4	270	0.00	29.923 
17:20	84.0	84.0	82.2	32	50.9	1	3	248	0.00	29.920 
17:25	84.0	84.0	82.2	32	50.9	1	3	270	0.00	29.920 
17:30	83.8	83.8	81.9	31	49.9	2	4	270	0.00	29.917 
17:35	83.6	83.6	81.8	31	49.7	1	3	248	0.00	29.918 
17:40	83.6	83.6	81.8	31	49.7	1	4	315	0.00	29.917 
17:45	83.4	83.4	81.6	31	49.6	1	3	270	0.00	29.919 
17:50	83.4	83.4	81.7	32	50.4	1	4	248	0.00	29.921 
17:55	83.4	83.4	81.7	32	50.4	1	4	248	0.00	29.919 
18:00	83.0	83.0	81.4	32	50.1	1	3	292	0.00	29.918 
18:05	82.4	82.4	80.9	32	49.5	1	3	292	0.00	29.913 
18:10	82.0	82.0	80.7	33	50.0	1	2	292	0.00	29.914 
18:15	81.6	81.6	80.5	34	50.5	0	2	292	0.00	29.913 
18:20	81.8	81.8	80.6	33	49.9	0	2	292	0.00	29.913 
18:25	81.8	81.8	80.7	34	50.7	1	2	248	0.00	29.913 
18:30	81.6	81.6	80.6	35	51.3	1	3	248	0.00	29.913 
18:35	81.4	81.4	80.5	35	51.1	1	3	270	0.00	29.913 
18:40	81.2	81.2	80.3	35	50.9	1	2	292	0.00	29.915 
18:45	81.1	81.1	80.4	36	51.6	1	3	292	0.00	29.919 
18:50	80.9	80.9	80.2	36	51.4	1	3	292	0.00	29.922 
18:55	80.9	80.9	80.3	37	52.2	0	2	292	0.00	29.926 
19:00	81.1	81.1	80.4	37	52.3	0	3	292	0.00	29.926 
19:05	81.1	81.1	80.5	38	53.1	0	1	292	0.00	29.919 
19:10	80.9	80.9	80.3	37	52.2	0	2	292	0.00	29.921 
19:15	80.9	80.9	80.1	35	50.7	1	2	292	0.00	29.922 
19:20	80.7	80.7	80.2	37	52.0	0	1	292	0.00	29.921 
19:25	80.3	80.3	79.9	37	51.6	0	1	292	0.00	29.922 
19:30	80.1	80.1	79.8	37	51.5	0	1	292	0.00	29.922 
19:35	79.9	79.9	79.7	38	52.0	0	1	292	0.00	29.923 
19:40	79.8	79.8	79.6	38	51.9	0	1	292	0.00	29.924 
19:45	79.6	79.6	79.6	39	52.4	0	1	292	0.00	29.927 
19:50	79.2	79.2	79.3	39	52.1	0	1	292	0.00	29.931 
19:55	79.0	79.0	79.2	39	51.9	0	1	292	0.00	29.929 
20:00	78.8	78.8	79.2	40	52.4	0	0	---	0.00	29.926 
20:05	78.6	78.6	79.2	42	53.6	0	0	---	0.00	29.925 
20:10	78.5	78.5	79.1	42	53.5	0	0	---	0.00	29.927 
20:15	78.3	78.3	79.0	42	53.3	0	0	---	0.00	29.928 
20:20	78.1	78.1	79.0	44	54.4	0	0	---	0.00	29.929 
20:25	77.7	77.7	78.8	44	54.0	0	0	---	0.00	29.927 
20:30	77.4	77.4	78.6	44	53.8	0	0	---	0.00	29.928 
20:35	77.2	77.2	78.6	46	54.8	0	0	---	0.00	29.931 
20:40	76.8	76.8	78.4	47	55.0	0	0	---	0.00	29.931 
20:45	76.3	76.3	78.2	47	54.6	0	0	---	0.00	29.935 
20:50	76.0	76.0	78.0	47	54.3	0	0	---	0.00	29.935 
20:55	75.6	75.6	77.9	49	55.1	0	0	---	0.00	29.936 
21:00	75.3	75.3	77.7	49	54.8	0	0	---	0.00	29.940 
21:05	75.1	75.1	77.7	50	55.2	0	0	---	0.00	29.938 
21:10	74.7	74.7	74.7	51	55.4	0	0	---	0.00	29.939 
21:15	74.6	74.6	74.6	51	55.3	0	0	---	0.00	29.939 
21:20	74.4	74.4	74.4	53	56.1	0	0	---	0.00	29.940 
21:25	74.0	74.0	74.0	52	55.2	0	0	---	0.00	29.941 
21:30	73.9	73.9	73.9	53	55.7	0	0	---	0.00	29.942 
21:35	73.5	73.5	73.5	54	55.8	0	0	---	0.00	29.940 
21:40	73.2	73.2	73.2	54	55.5	0	0	---	0.00	29.941 
21:45	73.0	73.0	73.0	56	56.4	0	0	---	0.00	29.941 
21:50	72.8	72.8	72.8	57	56.7	0	0	---	0.00	29.943 
21:55	72.7	72.7	72.7	57	56.6	0	0	---	0.00	29.943 
22:00	72.5	72.5	72.5	57	56.4	0	0	---	0.00	29.945 
22:05	72.3	72.3	72.3	57	56.2	0	0	---	0.00	29.955 
22:10	72.1	72.1	72.1	58	56.5	0	0	---	0.00	29.954 
22:15	72.0	72.0	72.0	59	56.9	0	0	---	0.00	29.953 
22:20	72.0	72.0	72.0	59	56.9	0	0	---	0.00	29.955 
22:25	71.8	71.8	71.8	59	56.7	0	0	---	0.00	29.952 
22:30	71.8	71.8	71.8	58	56.2	0	0	---	0.00	29.954 
22:35	71.8	71.8	71.8	59	56.7	0	0	---	0.00	29.954 
22:40	71.8	71.8	71.8	60	57.2	0	0	---	0.00	29.957 
22:45	71.6	71.6	71.6	61	57.4	0	0	---	0.00	29.956 
22:50	71.6	71.6	71.6	61	57.4	0	0	---	0.00	29.955 
22:55	71.6	71.6	71.6	62	57.9	0	0	---	0.00	29.953 
23:00	71.5	71.5	71.5	62	57.8	0	0	---	0.00	29.953 
23:05	71.5	71.5	71.5	62	57.8	0	0	---	0.00	29.948 
23:10	71.3	71.3	71.3	63	58.0	0	0	---	0.00	29.948 
23:15	71.1	71.1	71.1	63	57.9	0	0	---	0.00	29.945 
23:20	71.1	71.1	71.1	64	58.3	0	0	---	0.00	29.944 
23:25	70.9	70.9	70.9	64	58.1	0	0	---	0.00	29.945 
23:30	70.9	70.9	70.9	65	58.5	0	0	---	0.00	29.950 
23:35	70.8	70.8	70.8	65	58.4	0	0	---	0.00	29.952 
23:40	70.8	70.8	70.8	65	58.4	0	0	---	0.00	29.958 
23:45	70.6	70.6	70.6	66	58.7	0	0	---	0.00	29.958 
23:50	70.6	70.6	70.6	66	58.7	0	0	---	0.00	29.958 
23:55	70.6	70.6	70.6	66	58.7	0	0	---	0.00	29.958 

CoCoRaHS
IN-AL-39
A2 Web Hosting
Creative Commons License
GoDaddy
Look for:

loaded 2017-10-19 20:00:08 • last modified 2010-11-18 10:43:29
Privacy PolicyDisclaimer
• wx.awcolley.com is powered by PmWiki v.2002016 •
• all content (unless otherwise noted) © 2017 A W Colley